Terminal Aerodrome Forecast
Issued by NWS

Home | Current Version | Previous Version | Graphics & Text | Print | Product List | Glossary On
Versions: 1 2 3 4 5 6 7 8 9 10 11 12 13 14 15 16 17 18 19 20
000
FTUS43 KMPX 261733
TAFAXN
TAF
KAXN 261733Z 2618/2718 08012G18KT P6SM OVC010
     FM262000 08014G22KT P6SM OVC015
     FM270200 08015G24KT P6SM OVC025
     FM270600 08016G25KT P6SM BKN040
     FM271400 08020G30KT P6SM SCT040 BKN100 PROB30 2714/2718 4SM -RA
      BR BKN030=

USA.gov is the U.S. government's official web portal to all federal, state and local government web resources and services.